»·PEaware :: N980AN KSFO-KSBA

N980AN :: KSFO-KSBA

FLIGHT INFORMATION

Flight Status: Arrived
Operator: Privately registered:
United States
More flights under this callsign
Pilot: Sergei F. (8485)
Aircraft: BOEING 737-800
(B738)
More flights by this aircraft type
Origin: KSFO San Francisco Intl
United States
Destination: KSBA Santa Barbara Mun
United States
More flights between these airports :: More routes between these airports
Route: OFFSH2 GVO
File this flight plan on PilotEdge
Remarks:
Altitude:
(Current/Filed)
31,000ft
Speed:
(Current/Filed)
400kts
Departed: 02-Apr-21 08:57 PM
Arrived: 02-Apr-21 09:43 PM
Distance/Time
Traveled:
228nm/0:46
Distance/Time
To Go:
Arrived

Flight Plot

Page will automatically refresh every two minutes.

Flight plan parsing failed; only flown route is shown


Map Options




Map Legend


Flown Route
Filed Route
Departure Airport
Arrival Airport
Navaid (VOR, NDB)
Fix

Horizontal Profiles

Position Reports

Time Latitude Longitude Heading Altitude Ground
Speed
02-Apr-21 20:38 37.618315 -122.380826 238 32ft 0kts
02-Apr-21 20:39 37.618315 -122.380826 238 32ft 0kts
02-Apr-21 20:40 37.618315 -122.380826 238 32ft 0kts
02-Apr-21 20:41 37.618315 -122.380826 238 32ft 0kts
02-Apr-21 20:42 37.618315 -122.380826 238 32ft 0kts
02-Apr-21 20:43 37.618315 -122.380826 238 32ft 0kts
02-Apr-21 20:44 37.618315 -122.380826 238 32ft 0kts
02-Apr-21 20:45 37.618315 -122.380826 238 32ft 0kts
02-Apr-21 20:46 37.618315 -122.380825 238 32ft 0kts
02-Apr-21 20:47 37.618315 -122.380825 238 32ft 0kts
02-Apr-21 20:48 37.618514 -122.380427 220 32ft 2kts
02-Apr-21 20:49 37.619034 -122.380506 122 32ft 1kts
02-Apr-21 20:50 37.619073 -122.380602 117 32ft 0kts
02-Apr-21 20:51 37.619073 -122.380602 117 32ft 0kts
02-Apr-21 20:51 37.618685 -122.380032 142 32ft 7kts
02-Apr-21 20:53 37.615382 -122.380474 207 32ft 12kts
02-Apr-21 20:54 37.611759 -122.382850 207 32ft 13kts
02-Apr-21 20:54 37.609363 -122.383961 154 32ft 9kts
02-Apr-21 20:56 37.608715 -122.383075 118 31ft 6kts
02-Apr-21 20:56 37.612874 -122.379645 27 28ft 98kts
02-Apr-21 20:57 37.656166 -122.364384 351 2336ft 170kts
02-Apr-21 20:59 37.705213 -122.377409 280 5280ft 167kts
02-Apr-21 21:00 37.668555 -122.424571 216 7007ft 237kts
02-Apr-21 21:01 37.609867 -122.470444 216 9176ft 265kts
02-Apr-21 21:01 37.553700 -122.514147 216 11100ft 305kts
02-Apr-21 21:02 37.477086 -122.573689 216 13543ft 342kts
02-Apr-21 21:03 37.387102 -122.625550 203 16047ft 373kts
02-Apr-21 21:05 37.264376 -122.646177 176 18947ft 403kts
02-Apr-21 21:05 37.170796 -122.621276 171 20600ft 423kts
02-Apr-21 21:06 37.053411 -122.593285 172 22668ft 436kts
02-Apr-21 21:07 36.932498 -122.564328 171 24502ft 451kts
02-Apr-21 21:08 36.807196 -122.531637 171 25810ft 473kts
02-Apr-21 21:09 36.675827 -122.497502 171 27014ft 491kts
02-Apr-21 21:10 36.542500 -122.462973 171 28203ft 491kts
02-Apr-21 21:11 36.414514 -122.406515 144 29410ft 496kts
02-Apr-21 21:12 36.320289 -122.282328 130 30612ft 496kts
02-Apr-21 21:13 36.230802 -122.152124 129 31171ft 494kts
02-Apr-21 21:14 36.142172 -122.023389 129 31174ft 493kts
02-Apr-21 21:15 36.052361 -121.893356 129 31173ft 506kts
02-Apr-21 21:16 35.961133 -121.762110 129 31173ft 504kts
02-Apr-21 21:17 35.869837 -121.631512 130 31167ft 504kts
02-Apr-21 21:18 35.778098 -121.500778 129 31130ft 504kts
02-Apr-21 21:19 35.686342 -121.370504 129 30265ft 503kts
02-Apr-21 21:20 35.594527 -121.240432 130 29270ft 505kts
02-Apr-21 21:21 35.502725 -121.110811 130 28271ft 506kts
02-Apr-21 21:22 35.402107 -120.990315 137 27228ft 502kts
02-Apr-21 21:23 35.302205 -120.875169 137 25919ft 489kts
02-Apr-21 21:24 35.204092 -120.762666 137 24037ft 475kts
02-Apr-21 21:25 35.109398 -120.654502 136 21735ft 456kts
02-Apr-21 21:26 35.018613 -120.551181 136 19210ft 440kts
02-Apr-21 21:27 34.931107 -120.452153 136 16612ft 422kts
02-Apr-21 21:28 34.846670 -120.356792 136 13994ft 404kts
02-Apr-21 21:29 34.767647 -120.264375 126 11386ft 388kts
02-Apr-21 21:30 34.711823 -120.158854 122 10014ft 341kts
02-Apr-21 21:31 34.664986 -120.068694 122 9595ft 293kts
02-Apr-21 21:32 34.623505 -119.989018 122 8708ft 267kts
02-Apr-21 21:33 34.574374 -119.931787 161 7458ft 243kts
02-Apr-21 21:34 34.511916 -119.904305 162 5960ft 238kts
02-Apr-21 21:35 34.453798 -119.880138 162 5670ft 204kts
02-Apr-21 21:36 34.400056 -119.858745 162 4897ft 200kts
02-Apr-21 21:37 34.373577 -119.811329 82 3927ft 191kts
02-Apr-21 21:38 34.379046 -119.749569 68 2874ft 175kts
02-Apr-21 21:39 34.418538 -119.735145 333 1923ft 150kts
02-Apr-21 21:40 34.428439 -119.779432 268 985ft 146kts
02-Apr-21 21:41 34.427952 -119.828280 268 176ft 146kts
02-Apr-21 21:42 34.427299 -119.851723 215 19ft 12kts
02-Apr-21 21:43 34.426489 -119.848694 88 19ft 14kts
02-Apr-21 21:44 34.426615 -119.842510 88 19ft 22kts
02-Apr-21 21:45 34.426100 -119.838092 127 19ft 3kts
02-Apr-21 21:46 34.426024 -119.837527 91 17ft 0kts

Navigation Log

Ident Type
Flight plan parsing failed, navigation log unavailable